createdAt,value
2016-10-12T14:11:40.389Z,90.8
2016-10-12T14:12:00.992Z,90.4
2016-10-12T14:12:21.594Z,90.3
2016-10-12T14:12:42.189Z,90.1
2016-10-12T14:13:04.701Z,89.9
2016-10-12T14:13:26.197Z,90
2016-10-12T14:13:46.873Z,89.9
2016-10-12T14:14:08.235Z,90.2
2016-10-12T14:14:29.653Z,90.2
2016-10-12T14:14:50.266Z,89.9
2016-10-12T14:15:10.850Z,90.3
2016-10-12T14:15:31.450Z,90.2
2016-10-12T14:15:52.061Z,90.3
2016-10-12T14:16:12.660Z,90.2
2016-10-12T14:16:34.247Z,90.3
2016-10-12T14:16:54.869Z,90.4
2016-10-12T14:17:15.499Z,90.5
2016-10-12T14:17:36.127Z,90.4
2016-10-12T14:17:57.271Z,90.3
2016-10-12T14:18:18.804Z,90.5
2016-10-12T14:18:39.426Z,90.3
2016-10-12T14:19:00.695Z,90.2
2016-10-12T14:19:21.328Z,90.1
2016-10-12T14:19:41.964Z,90
2016-10-12T14:20:02.575Z,90.2
2016-10-12T14:20:23.707Z,90.1
2016-10-12T14:20:45.157Z,90.6
2016-10-12T14:21:05.765Z,91
2016-10-12T14:21:27.211Z,90.8
2016-10-12T14:21:48.742Z,90.8
2016-10-12T14:22:09.343Z,90.4
2016-10-12T14:22:30.766Z,90.7
2016-10-12T14:22:51.367Z,91
2016-10-12T14:23:12.022Z,90.8
2016-10-12T14:23:32.677Z,90.8
2016-10-12T14:23:54.201Z,91
2016-10-12T14:24:15.727Z,91
2016-10-12T14:24:38.192Z,90.9
2016-10-12T14:24:58.791Z,90.9
2016-10-12T14:25:19.417Z,91
2016-10-12T14:25:40.003Z,91
2016-10-12T14:26:00.619Z,90.4
2016-10-12T14:26:21.231Z,90.8
2016-10-12T14:26:41.820Z,90.9
2016-10-12T14:27:02.497Z,91
2016-10-12T14:27:23.213Z,90.5
2016-10-12T14:27:43.822Z,90.6
2016-10-12T14:28:05.225Z,90.1
2016-10-12T14:28:25.822Z,90.1
2016-10-12T14:28:46.426Z,90.2
2016-10-12T14:29:07.080Z,90.1
2016-10-12T14:29:27.665Z,90.5
2016-10-12T14:29:49.659Z,90.9
2016-10-12T14:30:10.273Z,90.8
2016-10-12T14:30:30.868Z,91
2016-10-12T14:30:51.521Z,90.7
2016-10-12T14:31:13.732Z,90.7
2016-10-12T14:31:34.348Z,90.5
2016-10-12T14:31:55.699Z,90.9
2016-10-12T14:32:16.286Z,90.8
2016-10-12T14:32:36.876Z,90.7
2016-10-12T14:32:57.181Z,90.8
2016-10-12T14:33:17.811Z,90.8
2016-10-12T14:33:38.418Z,90.7
2016-10-12T14:33:59.041Z,90.6
2016-10-12T14:34:20.220Z,90.7
2016-10-12T14:34:40.854Z,91.1
2016-10-12T14:35:02.258Z,90.9
2016-10-12T14:35:22.927Z,90.9
2016-10-12T14:35:43.547Z,90.9
2016-10-12T14:36:04.718Z,90.6
2016-10-12T14:36:26.364Z,90.7
2016-10-12T14:36:46.955Z,91
2016-10-12T14:37:08.246Z,91
2016-10-12T14:37:28.915Z,91.9
2016-10-12T14:37:50.275Z,91.5
2016-10-12T14:38:10.908Z,91.5
2016-10-12T14:38:32.262Z,91.4
2016-10-12T14:38:52.864Z,91.9
2016-10-12T14:39:13.530Z,91.4
2016-10-12T14:39:34.155Z,91.7
2016-10-12T14:39:54.761Z,91.3
2016-10-12T14:40:15.353Z,91.7
2016-10-12T14:40:36.057Z,91.7
2016-10-12T14:40:56.670Z,91.7
2016-10-12T14:41:17.266Z,91.7
2016-10-12T14:41:37.973Z,91.7
2016-10-12T14:41:58.605Z,91.3
2016-10-12T14:42:19.230Z,91.5
2016-10-12T14:42:39.809Z,91.6
2016-10-12T14:43:00.426Z,91.6
2016-10-12T14:43:21.704Z,91.2
2016-10-12T14:43:42.315Z,91.7
2016-10-12T14:44:03.002Z,91.5
2016-10-12T14:44:23.617Z,91.4
2016-10-12T14:44:44.270Z,91.7
2016-10-12T14:45:05.717Z,91.5
2016-10-12T14:45:26.347Z,91.6
2016-10-12T14:45:47.763Z,91.4
2016-10-12T14:46:09.235Z,92.2
2016-10-12T14:46:29.842Z,91.8
2016-10-12T14:46:50.467Z,92
2016-10-12T14:47:11.096Z,91.9
2016-10-12T14:47:32.349Z,91.9
2016-10-12T14:47:53.000Z,91.9
2016-10-12T14:48:14.714Z,91.9
2016-10-12T14:48:35.295Z,91.7
2016-10-12T14:48:56.818Z,91.9
2016-10-12T14:49:17.494Z,91.9
2016-10-12T14:49:38.119Z,91.9
2016-10-12T14:49:58.805Z,91.9
2016-10-12T14:50:20.231Z,91.9
2016-10-12T14:50:41.767Z,91.7
2016-10-12T14:51:02.407Z,91.7
2016-10-12T14:51:23.712Z,91.9
2016-10-12T14:51:44.288Z,91.9
2016-10-12T14:52:04.912Z,92
2016-10-12T14:52:25.507Z,91.8
2016-10-12T14:52:46.131Z,92.6
2016-10-12T14:53:06.763Z,92.3
2016-10-12T14:53:27.361Z,91.8
2016-10-12T14:53:47.960Z,92.6
2016-10-12T14:54:09.247Z,92.6
2016-10-12T14:54:29.904Z,92.3
2016-10-12T14:54:50.551Z,92.5
2016-10-12T14:55:11.800Z,92.4
2016-10-12T14:55:33.231Z,92.5
2016-10-12T14:55:54.772Z,92.3
2016-10-12T14:56:16.221Z,92.2
2016-10-12T14:56:36.877Z,92.6
2016-10-12T14:56:57.535Z,92.3
2016-10-12T14:57:18.124Z,92.6
2016-10-12T14:57:38.746Z,92.3
2016-10-12T14:57:59.317Z,92.5
2016-10-12T14:58:20.004Z,92.5
2016-10-12T14:58:40.637Z,92.3
2016-10-12T14:59:01.248Z,92.3
2016-10-12T14:59:21.949Z,92.6
2016-10-12T14:59:42.530Z,92.1
2016-10-12T15:00:03.187Z,92.4
2016-10-12T15:00:23.866Z,91.9
2016-10-12T15:00:44.530Z,91.9
2016-10-12T15:01:05.782Z,91.9
2016-10-12T15:01:26.392Z,91.9
2016-10-12T15:01:47.672Z,91.8
2016-10-12T15:02:08.292Z,92.2
2016-10-12T15:02:28.989Z,91.8
2016-10-12T15:02:49.579Z,92
2016-10-12T15:03:10.719Z,91.8
2016-10-12T15:03:32.228Z,91.8
2016-10-12T15:03:52.817Z,92.2
2016-10-12T15:04:13.417Z,92.6
2016-10-12T15:04:34.035Z,92.5
2016-10-12T15:04:54.650Z,92.5
2016-10-12T15:05:15.340Z,92.2
2016-10-12T15:05:35.967Z,92.4
2016-10-12T15:05:58.232Z,92.4
2016-10-12T15:06:19.715Z,92.2
2016-10-12T15:06:40.321Z,91.8
2016-10-12T15:07:00.913Z,92.1
2016-10-12T15:07:22.303Z,91.9
2016-10-12T15:07:42.916Z,92
2016-10-12T15:08:03.509Z,92.8
2016-10-12T15:08:24.106Z,92.7
2016-10-12T15:08:45.295Z,92.8
2016-10-12T15:09:05.883Z,92.6
2016-10-12T15:09:26.477Z,91.9
2016-10-12T15:09:47.106Z,92.4
2016-10-12T15:10:07.723Z,92.7
2016-10-12T15:10:29.225Z,92.5
2016-10-12T15:10:49.813Z,92.1
2016-10-12T15:11:11.254Z,92.5
2016-10-12T15:11:31.857Z,92.6
2016-10-12T15:11:56.339Z,92.3
2016-10-12T15:12:16.909Z,92.6
2016-10-12T15:12:37.550Z,92.6
2016-10-12T15:12:58.164Z,92.3
2016-10-12T15:13:18.790Z,92.6
2016-10-12T15:13:39.439Z,92.4
2016-10-12T15:14:00.017Z,92.4
2016-10-12T15:14:20.601Z,92.4
2016-10-12T15:14:41.778Z,92.4
2016-10-12T15:15:02.381Z,91.9
2016-10-12T15:15:23.010Z,92.5
2016-10-12T15:15:44.246Z,92.6
2016-10-12T15:16:04.833Z,92.6
2016-10-12T15:16:25.441Z,92.7
2016-10-12T15:16:46.102Z,92.5
2016-10-12T15:17:06.777Z,92.3
2016-10-12T15:17:29.766Z,92
2016-10-12T15:17:51.274Z,92.4
2016-10-12T15:18:11.862Z,92.7
2016-10-12T15:18:33.184Z,92.3
2016-10-12T15:18:53.777Z,92.6
2016-10-12T15:19:14.363Z,92.4
2016-10-12T15:19:36.771Z,92.3
2016-10-12T15:19:57.396Z,92.3
2016-10-12T15:20:19.745Z,92.5
2016-10-12T15:20:40.343Z,92.4
2016-10-12T15:21:00.984Z,92.5
2016-10-12T15:21:21.639Z,92.3
2016-10-12T15:21:42.325Z,92.2
2016-10-12T15:22:03.129Z,92.3
2016-10-12T15:22:23.720Z,92.3
2016-10-12T15:22:45.760Z,92.5
2016-10-12T15:23:07.320Z,92.4
2016-10-12T15:23:28.254Z,92.2
2016-10-12T15:23:48.848Z,92.2
2016-10-12T15:24:09.439Z,92.2
2016-10-12T15:24:30.069Z,92.4
2016-10-12T15:24:50.666Z,92.3
2016-10-12T15:25:11.276Z,92.4
2016-10-12T15:25:31.884Z,92.2
2016-10-12T15:25:52.476Z,92.5
2016-10-12T15:26:13.108Z,92.1
2016-10-12T15:26:33.751Z,92.4
2016-10-12T15:26:54.369Z,92.3
2016-10-12T15:27:15.687Z,92.3
2016-10-12T15:27:36.331Z,92.4
2016-10-12T15:27:56.940Z,92.2
2016-10-12T15:28:18.275Z,92.3
2016-10-12T15:28:38.881Z,92.2
2016-10-12T15:29:00.265Z,92.7
2016-10-12T15:29:21.868Z,92.4
2016-10-12T15:29:42.897Z,92.5
2016-10-12T15:30:03.626Z,92.3
2016-10-12T15:30:24.251Z,92.3
2016-10-12T15:30:45.765Z,92.4
2016-10-12T15:31:06.400Z,92.6
2016-10-12T15:31:27.007Z,92.2
2016-10-12T15:31:47.679Z,92.1
2016-10-12T15:32:09.073Z,92.2
2016-10-12T15:32:29.762Z,92.3
2016-10-12T15:32:51.313Z,92.3
2016-10-12T15:33:12.969Z,92.3
2016-10-12T15:33:35.256Z,92.1
2016-10-12T15:33:55.945Z,92.2
2016-10-12T15:34:16.707Z,92.5
2016-10-12T15:34:37.470Z,92.3
2016-10-12T15:34:58.147Z,92.3
2016-10-12T15:35:18.882Z,92.5
2016-10-12T15:35:39.529Z,92.3
2016-10-12T15:36:00.179Z,92.2
2016-10-12T15:36:20.862Z,92.3
2016-10-12T15:36:41.531Z,92.6
2016-10-12T15:37:03.688Z,92.2
2016-10-12T15:37:24.382Z,92.5
2016-10-12T15:37:45.760Z,92.3
2016-10-12T15:38:07.316Z,92.5
2016-10-12T15:38:27.950Z,92.3
2016-10-12T15:38:49.028Z,92.7
2016-10-12T15:39:09.645Z,92.4
2016-10-12T15:39:30.761Z,92.2
2016-10-12T15:39:51.413Z,92.5
2016-10-12T15:40:12.047Z,92.3
2016-10-12T15:40:33.250Z,92.1
2016-10-12T15:40:53.892Z,92.3
2016-10-12T15:41:14.482Z,92.5
2016-10-12T15:41:35.775Z,92.5
2016-10-12T15:41:56.406Z,92.5
2016-10-12T15:42:17.011Z,92.3
2016-10-12T15:42:37.630Z,92.1
2016-10-12T15:42:58.222Z,92.2
2016-10-12T15:43:19.806Z,92.6
2016-10-12T15:43:40.376Z,92.3
2016-10-12T15:44:01.851Z,92.5
2016-10-12T15:44:23.230Z,92.7
2016-10-12T15:44:43.826Z,92.2
2016-10-12T15:45:05.315Z,92.3
2016-10-12T15:45:26.246Z,92.3
2016-10-12T15:45:46.876Z,92.7
2016-10-12T15:46:07.479Z,92.7
2016-10-12T15:46:28.762Z,92.5
2016-10-12T15:46:50.257Z,92.6
2016-10-12T15:47:10.848Z,92.6
2016-10-12T15:47:31.464Z,92.7
2016-10-12T15:47:52.052Z,92.5
2016-10-12T15:48:12.729Z,92.6
2016-10-12T15:48:33.541Z,92.3
2016-10-12T15:48:54.856Z,92.1
2016-10-12T15:49:15.472Z,92.4
2016-10-12T15:49:36.062Z,92.5
2016-10-12T15:49:56.692Z,92.4
2016-10-12T15:50:17.494Z,92.5
2016-10-12T15:50:38.106Z,92.6
2016-10-12T15:50:58.717Z,92.3
2016-10-12T15:51:20.287Z,92.7
2016-10-12T15:51:40.901Z,92.4
2016-10-12T15:52:02.236Z,92
2016-10-12T15:52:22.856Z,92
2016-10-12T15:52:43.477Z,92.5
2016-10-12T15:53:05.750Z,92.5
2016-10-12T15:53:26.399Z,92.7
2016-10-12T15:53:47.781Z,91.5
2016-10-12T15:54:09.285Z,92.1
2016-10-12T15:54:29.893Z,91.9
2016-10-12T15:54:50.533Z,91.8
2016-10-12T15:55:11.148Z,92.5
2016-10-12T15:55:32.244Z,92.6
2016-10-12T15:55:53.764Z,92.4
2016-10-12T15:56:14.441Z,92.2
2016-10-12T15:56:35.063Z,92.3
2016-10-12T15:56:55.652Z,92.3
2016-10-12T15:57:16.454Z,92.7
2016-10-12T15:57:37.088Z,92.2
2016-10-12T15:57:58.265Z,92.3
2016-10-12T15:58:18.933Z,92.2
2016-10-12T15:58:39.551Z,92.2
2016-10-12T15:59:00.181Z,92.4
2016-10-12T15:59:20.821Z,92.4
2016-10-12T15:59:41.436Z,92.3
2016-10-12T16:00:02.877Z,92.4
2016-10-12T16:00:24.214Z,92.4
2016-10-12T16:00:45.460Z,92.3
2016-10-12T16:01:06.114Z,92.3
2016-10-12T16:01:26.898Z,92.5
2016-10-12T16:01:47.520Z,92.3
2016-10-12T16:02:08.798Z,92.5
2016-10-12T16:02:29.422Z,92.5
2016-10-12T16:02:50.074Z,92.4
2016-10-12T16:03:10.702Z,92.4
2016-10-12T16:03:31.832Z,92.2
2016-10-12T16:03:53.360Z,92.3
2016-10-12T16:04:13.930Z,92.5
2016-10-12T16:04:34.529Z,92.4
2016-10-12T16:04:55.111Z,92.5
2016-10-12T16:05:15.384Z,92.2
2016-10-12T16:05:36.024Z,92.3
2016-10-12T16:05:56.680Z,92.7
2016-10-12T16:06:17.291Z,92.3
2016-10-12T16:06:37.955Z,92.4
2016-10-12T16:06:58.580Z,92.5
2016-10-12T16:07:19.222Z,92.2
2016-10-12T16:07:40.773Z,92.6
2016-10-12T16:08:01.367Z,92.3
2016-10-12T16:08:22.016Z,92.2
2016-10-12T16:08:42.602Z,92.5
2016-10-12T16:09:03.196Z,92.4
2016-10-12T16:09:24.703Z,92.4
2016-10-12T16:09:45.822Z,92.3
2016-10-12T16:10:06.428Z,92.2
2016-10-12T16:10:27.089Z,92.4
2016-10-12T16:10:47.680Z,92.3
2016-10-12T16:11:08.269Z,92.3
2016-10-12T16:11:29.705Z,92.2
2016-10-12T16:11:51.297Z,92.3
2016-10-12T16:12:11.933Z,92.2
2016-10-12T16:12:32.553Z,92.3
2016-10-12T16:12:53.197Z,92.5
2016-10-12T16:13:14.708Z,92.5
2016-10-12T16:13:35.345Z,92.1
2016-10-12T16:13:56.776Z,92.2
2016-10-12T16:14:18.248Z,92.5
2016-10-12T16:14:38.860Z,92.3
2016-10-12T16:15:00.277Z,92.3
2016-10-12T16:15:20.924Z,92.3
2016-10-12T16:15:42.206Z,92.4
2016-10-12T16:16:04.285Z,92.4
2016-10-12T16:16:24.921Z,92.5
2016-10-12T16:16:45.517Z,92.7
2016-10-12T16:17:06.848Z,92.7
2016-10-12T16:17:27.443Z,93
2016-10-12T16:17:48.759Z,93
2016-10-12T16:18:09.397Z,93.1
2016-10-12T16:18:30.053Z,93.2
2016-10-12T16:18:51.874Z,93.3
2016-10-12T16:19:12.512Z,93.1
2016-10-12T16:19:33.101Z,93.2
2016-10-12T16:19:53.743Z,92.9
2016-10-12T16:20:15.315Z,92.7
2016-10-12T16:20:35.923Z,92.7
2016-10-12T16:20:57.215Z,92.7
2016-10-12T16:21:17.854Z,93.5
2016-10-12T16:21:38.467Z,92.7
2016-10-12T16:21:59.127Z,92.7
2016-10-12T16:22:19.732Z,93
2016-10-12T16:22:41.795Z,92.9
2016-10-12T16:23:04.767Z,93
2016-10-12T16:23:25.452Z,93
2016-10-12T16:23:46.773Z,92.7
2016-10-12T16:24:07.381Z,92.5
2016-10-12T16:24:28.025Z,93
2016-10-12T16:24:49.256Z,93
2016-10-12T16:25:09.883Z,93.1
2016-10-12T16:25:30.509Z,92.9
2016-10-12T16:25:51.815Z,92.9
2016-10-12T16:26:12.441Z,92.9
2016-10-12T16:26:33.079Z,93
2016-10-12T16:26:53.689Z,92.9
2016-10-12T16:27:14.246Z,92.8
2016-10-12T16:27:35.786Z,92.7
2016-10-12T16:27:57.322Z,92.9
2016-10-12T16:28:18.909Z,92.9
2016-10-12T16:28:39.516Z,93
2016-10-12T16:29:01.294Z,93
2016-10-12T16:29:21.976Z,92.8
2016-10-12T16:29:42.628Z,93.1
2016-10-12T16:30:04.761Z,93.1
2016-10-12T16:30:25.362Z,93.3
2016-10-12T16:30:46.021Z,92.9
2016-10-12T16:31:06.672Z,93.1
2016-10-12T16:31:27.313Z,93
2016-10-12T16:31:47.913Z,93.2
2016-10-12T16:32:08.502Z,93.1
2016-10-12T16:32:29.105Z,93.1
2016-10-12T16:32:51.260Z,93.3
2016-10-12T16:33:12.784Z,93.3
2016-10-12T16:33:33.343Z,93.1
2016-10-12T16:33:54.244Z,93.1
2016-10-12T16:34:14.838Z,93
2016-10-12T16:34:35.433Z,92.8
2016-10-12T16:34:56.813Z,93.2
2016-10-12T16:35:17.490Z,93.1
2016-10-12T16:35:38.157Z,93
2016-10-12T16:35:59.372Z,92.9
2016-10-12T16:36:20.011Z,92.9
2016-10-12T16:36:42.253Z,93.2
2016-10-12T16:37:02.834Z,93.2
2016-10-12T16:37:24.216Z,93.2
2016-10-12T16:37:44.847Z,93.1
2016-10-12T16:38:05.475Z,93
2016-10-12T16:38:26.094Z,93.1
2016-10-12T16:38:46.725Z,92.7
2016-10-12T16:39:07.354Z,92.8
2016-10-12T16:39:27.972Z,92.7
2016-10-12T16:39:48.568Z,92.7
2016-10-12T16:40:09.817Z,93.5
2016-10-12T16:40:30.440Z,93.2
2016-10-12T16:40:51.072Z,93
2016-10-12T16:41:13.293Z,93.3
2016-10-12T16:41:33.902Z,93.4
2016-10-12T16:41:55.293Z,92.7
2016-10-12T16:42:15.885Z,93.1
2016-10-12T16:42:36.158Z,93.1
2016-10-12T16:42:56.779Z,93.1
2016-10-12T16:43:18.309Z,93.1
2016-10-12T16:43:39.830Z,93
2016-10-12T16:44:00.505Z,93.1
2016-10-12T16:44:21.864Z,93.1
2016-10-12T16:44:42.492Z,92.9
2016-10-12T16:45:03.084Z,92.9
2016-10-12T16:45:23.713Z,93.1
2016-10-12T16:45:44.330Z,92.7
2016-10-12T16:46:04.921Z,92.7
2016-10-12T16:46:25.521Z,93.5
2016-10-12T16:46:46.768Z,93.5
2016-10-12T16:47:07.351Z,93.1
2016-10-12T16:47:28.796Z,93.5
2016-10-12T16:47:49.432Z,93.5
2016-10-12T16:48:10.898Z,93
2016-10-12T16:48:31.710Z,92.8
2016-10-12T16:48:52.397Z,93.1
2016-10-12T16:49:13.774Z,92.9
2016-10-12T16:49:35.297Z,93.1
2016-10-12T16:49:55.918Z,93.2
2016-10-12T16:50:16.543Z,93
2016-10-12T16:50:37.364Z,93.2
2016-10-12T16:50:58.784Z,93
2016-10-12T16:51:19.385Z,93.2
2016-10-12T16:51:40.024Z,93.1
2016-10-12T16:52:00.688Z,92.9
2016-10-12T16:52:21.311Z,93
2016-10-12T16:52:41.911Z,93
2016-10-12T16:53:02.542Z,93
2016-10-12T16:53:23.212Z,93.1
2016-10-12T16:53:43.884Z,93.2
2016-10-12T16:54:04.489Z,93.3
2016-10-12T16:54:25.048Z,93
2016-10-12T16:54:46.724Z,93.3
2016-10-12T16:55:07.900Z,93.4
2016-10-12T16:55:28.660Z,93.4
2016-10-12T16:55:49.305Z,93.3
2016-10-12T16:56:09.898Z,93
2016-10-12T16:56:31.298Z,93.2
2016-10-12T16:56:52.793Z,93.1
2016-10-12T16:57:13.398Z,93.1
2016-10-12T16:57:34.919Z,93.3
2016-10-12T16:57:55.547Z,93.4
2016-10-12T16:58:16.770Z,93.1
2016-10-12T16:58:37.409Z,93.3
2016-10-12T16:59:00.304Z,93.2
2016-10-12T16:59:20.976Z,93
2016-10-12T16:59:41.626Z,93.2
2016-10-12T17:00:02.262Z,93.4
2016-10-12T17:00:23.521Z,93.2
2016-10-12T17:00:44.174Z,93.3
2016-10-12T17:01:04.817Z,93.3
2016-10-12T17:01:25.961Z,93.3
2016-10-12T17:01:46.590Z,93.3
2016-10-12T17:02:07.254Z,93
2016-10-12T17:02:27.905Z,92.8
2016-10-12T17:02:49.272Z,92.7
2016-10-12T17:03:10.011Z,92.8
2016-10-12T17:03:31.304Z,92.8
2016-10-12T17:03:51.891Z,92.7
2016-10-12T17:04:12.485Z,93.4
2016-10-12T17:04:33.064Z,93
2016-10-12T17:04:53.661Z,93.5
2016-10-12T17:05:14.348Z,93.3
2016-10-12T17:05:34.966Z,93.3
2016-10-12T17:05:56.286Z,93.5
2016-10-12T17:06:17.834Z,93.3
2016-10-12T17:06:39.868Z,93.4
2016-10-12T17:07:01.342Z,93.2
2016-10-12T17:07:21.983Z,93.3
2016-10-12T17:07:42.605Z,93.4
2016-10-12T17:08:03.224Z,93.5
2016-10-12T17:08:24.360Z,93.3
2016-10-12T17:08:44.972Z,93.4
2016-10-12T17:09:05.559Z,93.1
2016-10-12T17:09:26.151Z,93.6
2016-10-12T17:09:46.732Z,93.2
2016-10-12T17:10:08.382Z,93.3
2016-10-12T17:10:28.999Z,93.2
2016-10-12T17:10:49.620Z,93.6
2016-10-12T17:11:10.255Z,93.6
2016-10-12T17:11:31.818Z,94.1
2016-10-12T17:11:52.408Z,94
2016-10-12T17:12:13.051Z,93.6
2016-10-12T17:12:33.710Z,93.6
2016-10-12T17:12:54.295Z,94.1
2016-10-12T17:13:14.912Z,93.7
2016-10-12T17:13:35.488Z,93.9
2016-10-12T17:13:56.810Z,93.4
2016-10-12T17:14:18.297Z,93.3
2016-10-12T17:14:38.955Z,93.3
2016-10-12T17:14:59.561Z,93
2016-10-12T17:15:20.242Z,93
2016-10-12T17:15:41.403Z,92.9
2016-10-12T17:16:02.018Z,93.2
2016-10-12T17:16:22.689Z,93.3
2016-10-12T17:16:43.388Z,93.1
2016-10-12T17:17:04.030Z,92.8
2016-10-12T17:17:24.658Z,92.7
2016-10-12T17:17:45.299Z,92.9
2016-10-12T17:18:05.878Z,93.3
2016-10-12T17:18:26.460Z,93
2016-10-12T17:18:47.062Z,93.3
2016-10-12T17:19:07.675Z,93.1
2016-10-12T17:19:29.295Z,93.5
2016-10-12T17:19:49.913Z,93.3
2016-10-12T17:20:11.295Z,93.3
2016-10-12T17:20:31.941Z,93
2016-10-12T17:20:53.503Z,93.4
2016-10-12T17:21:14.195Z,93.4
2016-10-12T17:21:35.399Z,93.5
2016-10-12T17:21:56.874Z,93.1
2016-10-12T17:22:17.469Z,93.3
2016-10-12T17:22:38.098Z,94
2016-10-12T17:22:58.741Z,93.9
2016-10-12T17:23:19.317Z,93.8
2016-10-12T17:23:39.971Z,93.8
2016-10-12T17:24:00.569Z,93.8
2016-10-12T17:24:21.156Z,93.8
2016-10-12T17:24:41.771Z,93.2
2016-10-12T17:25:03.324Z,93.5
2016-10-12T17:25:23.912Z,93.4
2016-10-12T17:25:45.315Z,94
2016-10-12T17:26:06.940Z,94
2016-10-12T17:26:27.611Z,94
2016-10-12T17:26:48.211Z,93.8
2016-10-12T17:27:09.770Z,93.8
2016-10-12T17:27:30.358Z,93.7
2016-10-12T17:27:50.983Z,93.7
2016-10-12T17:28:13.297Z,93.2
2016-10-12T17:28:33.900Z,93.7
2016-10-12T17:28:54.548Z,93.8
2016-10-12T17:29:15.819Z,93.4
2016-10-12T17:29:38.290Z,93.2
2016-10-12T17:29:59.794Z,93.3
2016-10-12T17:30:20.405Z,93.1
2016-10-12T17:30:41.880Z,93.3
2016-10-12T17:31:02.477Z,93.3
2016-10-12T17:31:23.104Z,93.5
2016-10-12T17:31:48.952Z,93.2
2016-10-12T17:32:09.681Z,93.4
2016-10-12T17:32:30.307Z,93.1
2016-10-12T17:32:52.830Z,93.3
2016-10-12T17:33:13.580Z,93.1
2016-10-12T17:33:34.820Z,93.1
2016-10-12T17:33:56.312Z,93.4
2016-10-12T17:34:16.988Z,93.2
2016-10-12T17:34:37.596Z,93.4
2016-10-12T17:34:58.225Z,93.2
2016-10-12T17:35:18.882Z,93.4
2016-10-12T17:35:39.603Z,93.2
2016-10-12T17:36:00.825Z,93.2
2016-10-12T17:36:22.795Z,93.2
2016-10-12T17:36:44.405Z,93.5
2016-10-12T17:37:05.105Z,94
2016-10-12T17:37:25.788Z,94
2016-10-12T17:37:46.440Z,94
2016-10-12T17:38:07.133Z,93.8
2016-10-12T17:38:28.824Z,93.7
2016-10-12T17:38:49.562Z,94
2016-10-12T17:39:10.275Z,93.7
2016-10-12T17:39:31.203Z,93.7
2016-10-12T17:39:52.428Z,93.9
2016-10-12T17:40:13.810Z,93.9
2016-10-12T17:40:34.496Z,94
2016-10-12T17:40:55.918Z,93.7
2016-10-12T17:41:17.303Z,94.1
2016-10-12T17:41:38.109Z,93.2
2016-10-12T17:41:59.832Z,93.3
2016-10-12T17:42:21.090Z,93.2
2016-10-12T17:42:42.482Z,93.8
2016-10-12T17:43:03.283Z,94
2016-10-12T17:43:24.184Z,93.7
2016-10-12T17:43:45.118Z,93.6
2016-10-12T17:44:05.949Z,93.9
2016-10-12T17:44:27.492Z,93.7
2016-10-12T17:44:48.755Z,93.8
2016-10-12T17:45:09.544Z,94.1
2016-10-12T17:45:30.275Z,93.9
2016-10-12T17:45:51.857Z,93.8
2016-10-12T17:46:12.636Z,93.6
2016-10-12T17:46:34.359Z,93.7
2016-10-12T17:46:55.066Z,93.4
2016-10-12T17:47:15.848Z,93.5
2016-10-12T17:47:37.428Z,93.3
2016-10-12T17:47:59.194Z,93.2
2016-10-12T17:48:20.238Z,93.3
2016-10-12T17:48:42.922Z,93
2016-10-12T17:49:03.835Z,93
2016-10-12T17:49:24.633Z,93.3
2016-10-12T17:49:45.484Z,93.4
2016-10-12T17:50:07.066Z,93.4
2016-10-12T17:50:27.969Z,94.1
2016-10-12T17:50:48.817Z,93.6
2016-10-12T17:51:09.795Z,93.4
2016-10-12T17:51:36.387Z,93.4
2016-10-12T17:51:58.069Z,93.5
2016-10-12T17:52:19.103Z,93.3
2016-10-12T17:52:40.170Z,93.3
2016-10-12T17:53:01.184Z,92.7
2016-10-12T17:53:22.152Z,93.1
2016-10-12T17:53:43.396Z,93.3
2016-10-12T17:54:04.826Z,93
2016-10-12T17:54:26.254Z,93.1
2016-10-12T17:54:47.650Z,93.2
2016-10-12T17:55:09.021Z,93.4
2016-10-12T17:55:31.137Z,93.4
2016-10-12T17:55:52.592Z,93.1
2016-10-12T17:56:13.949Z,93.2
2016-10-12T17:56:36.216Z,93
2016-10-12T17:56:57.951Z,93.3
2016-10-12T17:57:19.314Z,94.1
2016-10-12T17:57:41.404Z,93.7
2016-10-12T17:58:03.450Z,94
2016-10-12T17:58:26.257Z,93.3
2016-10-12T17:58:48.432Z,93.5
2016-10-12T17:59:09.696Z,93.4
2016-10-12T17:59:30.962Z,92.7
2016-10-12T17:59:52.775Z,92.7
2016-10-12T18:00:14.006Z,93.3
2016-10-12T18:00:35.273Z,93.3
2016-10-12T18:00:56.509Z,93.2
2016-10-12T18:01:17.751Z,93.2
2016-10-12T18:01:39.754Z,93
2016-10-12T18:02:01.751Z,93.5
2016-10-12T18:02:22.732Z,93.4
2016-10-12T18:02:43.676Z,93.4
2016-10-12T18:03:04.707Z,93.3
2016-10-12T18:03:26.479Z,93.3
2016-10-12T18:03:48.272Z,93.3
2016-10-12T18:04:11.043Z,93
2016-10-12T18:04:32.293Z,93.2
2016-10-12T18:04:53.440Z,93.4
2016-10-12T18:05:15.668Z,93.1
2016-10-12T18:05:36.916Z,93
2016-10-12T18:05:58.170Z,92.9
2016-10-12T18:06:19.458Z,93.2
2016-10-12T18:06:41.505Z,93.2
2016-10-12T18:07:04.257Z,92.7
2016-10-12T18:07:26.159Z,93.2
2016-10-12T18:07:49.012Z,93.3
2016-10-12T18:08:10.260Z,92.9
2016-10-12T18:08:31.522Z,92.7
2016-10-12T18:08:52.777Z,92.9
2016-10-12T18:09:14.003Z,93.5
2016-10-12T18:09:35.276Z,93.5
2016-10-12T18:09:58.059Z,93.5
2016-10-12T18:10:19.442Z,93
2016-10-12T18:10:40.695Z,93
2016-10-12T18:11:01.954Z,93
2016-10-12T18:11:23.219Z,93
2016-10-12T18:11:59.081Z,92.8
2016-10-12T18:12:20.887Z,92.7
2016-10-12T18:12:43.489Z,92.8
2016-10-12T18:13:04.832Z,93.2
2016-10-12T18:13:27.064Z,93.4
2016-10-12T18:13:49.288Z,92.7
2016-10-12T18:14:10.727Z,92.7
2016-10-12T18:14:32.045Z,92.7
2016-10-12T18:14:53.374Z,92.7
2016-10-12T18:15:14.648Z,93.4
2016-10-12T18:15:36.000Z,93.6
2016-10-12T18:15:57.259Z,93.3
2016-10-12T18:16:19.956Z,93
2016-10-12T18:16:41.356Z,93.2
2016-10-12T18:17:05.378Z,93
2016-10-12T18:17:26.769Z,93.4
2016-10-12T18:17:48.122Z,93.2
2016-10-12T18:18:09.426Z,93.1
2016-10-12T18:18:31.602Z,92.8
2016-10-12T18:18:52.962Z,93.3
2016-10-12T18:19:14.276Z,93.2
2016-10-12T18:19:35.554Z,93.3
2016-10-12T18:19:57.594Z,92.8
2016-10-12T18:20:19.761Z,93.1
2016-10-12T18:20:41.066Z,93.2
2016-10-12T18:21:02.430Z,93.4
2016-10-12T18:21:23.699Z,93.5
2016-10-12T18:21:44.913Z,93.1
2016-10-12T18:22:06.242Z,93.4
2016-10-12T18:22:27.575Z,93.5
2016-10-12T18:22:48.887Z,92.8
2016-10-12T18:23:11.102Z,93.2
2016-10-12T18:23:32.331Z,93.2
2016-10-12T18:23:53.707Z,93.5
2016-10-12T18:24:15.027Z,93.2
2016-10-12T18:24:36.267Z,93
2016-10-12T18:24:59.205Z,93.2
2016-10-12T18:25:21.582Z,93.2
2016-10-12T18:25:42.941Z,93.4
2016-10-12T18:26:05.559Z,93.1
2016-10-12T18:26:27.884Z,93.2
2016-10-12T18:26:49.156Z,93
2016-10-12T18:27:10.627Z,92.9
2016-10-12T18:27:32.463Z,93.1
2016-10-12T18:27:53.767Z,93.3
2016-10-12T18:28:15.306Z,93.3
2016-10-12T18:28:36.566Z,93.2
2016-10-12T18:28:57.743Z,93.3
2016-10-12T18:29:19.651Z,93.2
2016-10-12T18:29:41.219Z,93.5
2016-10-12T18:30:03.370Z,93.6
2016-10-12T18:30:24.637Z,92.7
2016-10-12T18:30:45.981Z,93.6
2016-10-12T18:31:08.031Z,92.8
2016-10-12T18:31:29.335Z,93.1
2016-10-12T18:31:50.788Z,93.3
2016-10-12T18:32:12.009Z,93.5
2016-10-12T18:32:33.266Z,93.3
2016-10-12T18:32:54.696Z,93
2016-10-12T18:33:16.055Z,93
2016-10-12T18:33:37.324Z,93
2016-10-12T18:33:58.621Z,93.3
2016-10-12T18:34:22.409Z,93.2
2016-10-12T18:34:44.859Z,93.1
2016-10-12T18:35:06.213Z,93.2
2016-10-12T18:35:27.641Z,93
2016-10-12T18:35:49.827Z,93.2
2016-10-12T18:36:11.663Z,93.3
2016-10-12T18:36:32.965Z,93.2
2016-10-12T18:36:54.216Z,93.5
2016-10-12T18:37:15.459Z,93.1
2016-10-12T18:37:38.358Z,93.3
2016-10-12T18:38:00.140Z,93.3
2016-10-12T18:38:21.415Z,93.1
2016-10-12T18:38:42.743Z,93.1
2016-10-12T18:39:04.002Z,93.4
2016-10-12T18:39:25.302Z,93.3
2016-10-12T18:39:46.690Z,93.2
2016-10-12T18:40:07.992Z,93.3
2016-10-12T18:40:29.300Z,93.3
2016-10-12T18:40:50.565Z,93.3
2016-10-12T18:41:11.905Z,92.7
2016-10-12T18:41:34.487Z,93
2016-10-12T18:41:55.779Z,93.5
2016-10-12T18:42:17.771Z,93.3
2016-10-12T18:42:39.027Z,92.7
2016-10-12T18:43:00.355Z,93.1
2016-10-12T18:43:21.601Z,93.3
2016-10-12T18:43:42.922Z,93.2
2016-10-12T18:44:04.207Z,93.1
2016-10-12T18:44:25.466Z,93.1
2016-10-12T18:44:47.380Z,93.2
2016-10-12T18:45:08.743Z,93.1
2016-10-12T18:45:29.988Z,93.5
2016-10-12T18:45:51.300Z,93.2
2016-10-12T18:46:12.525Z,93.4
2016-10-12T18:46:33.816Z,93.2
2016-10-12T18:46:55.004Z,93.2
2016-10-12T18:47:16.248Z,93.1
2016-10-12T18:47:37.470Z,92.9
2016-10-12T18:47:58.750Z,93
2016-10-12T18:48:20.045Z,92.7
2016-10-12T18:48:41.987Z,93.4
2016-10-12T18:49:03.274Z,92.8
2016-10-12T18:49:25.899Z,92.7
2016-10-12T18:49:47.180Z,92.8
2016-10-12T18:50:08.473Z,92.7
2016-10-12T18:50:29.713Z,92.7
2016-10-12T18:50:51.679Z,92.7
2016-10-12T18:51:14.388Z,93.4
2016-10-12T18:51:46.574Z,93
2016-10-12T18:52:07.788Z,92.7
2016-10-12T18:52:29.028Z,93
2016-10-12T18:52:50.323Z,93.5
2016-10-12T18:53:11.611Z,93.2
2016-10-12T18:53:32.879Z,93.3
2016-10-12T18:53:54.846Z,93.5
2016-10-12T18:54:16.887Z,93.2
2016-10-12T18:54:38.168Z,93